Lagoa Alegre, Brazil
Current Conditions -  °F | °C
As of 6:00 PM on Tuesday 25 Nov 2014 (Local Time) from SBTE Reporting Station
Few Clouds Few Clouds  
Wind Chill: 93°   Ceiling: Unl
Heat Index: 94°   Visibility: 6mi
Dew Point: 63°   Wind: 5mph
Humidity: 36%   Direction: 230°SW
Pressure: 29.71"   Gusts: NA
Location:  4.52°S, 42.62°W
Report Text: SBTE 252100Z 23004KT 9999 FEW030 34/17 Q1006
Loading
Personal Weather Stations






























Interactive Weather Map New forecast layout! Learn more

10-Day Weather Forecast

Advertisements
Track Severe Weather on mobile